Tiempo atmosférico en la estación meteorológica de Ourense, Ourense (143 m.)



Fecha
DESCASC
Temp. máxima en grados centígrados (hora)
DESCASC
Temp. mínima en grados centígrados (hora)
DESCASC
Temp. media en grados centígrados
DESCASC
Racha de viento máxima en m/sg (hora)
DESCASC
Velocidad máxima media en intervalos de 10 minutos(hora)
DESCASC
Precipitaciones diarias en mm
DESCASC
Precipitaciones de 00:00 a 06:00 en mm
DESCASC
Precipitaciones de 06:00 a 12:00 en mm
DESCASC
Precipitaciones de 12:00 a 18:00 en mm
DESCASC
Precipitaciones de 18:00 a 24:00 en mm
DESCASC
13-10-2019 19.1 (04:10) 14 (23:59) 16.6 7.22 (06:00) 3.33 (06:00) 34.4 0 15.8 5.4 13.2
12-10-2019 27.5 (16:00) 11.4 (09:10) 19.4 11.11 (16:20) 5.28 (15:40) 0 0 0 0 0
10-10-2019 26.4 (18:50) 7.1 (00:00) 16.7 3.89 (12:10) 1.94 (12:10) 0 0 0 0 0
09-10-2019 22.7 (17:00) 7.7 (00:00) 15.2 5.83 (18:10) 2.22 (13:30) 0 0 0 0 0
08-10-2019 24.4 (14:40) 12.6 (00:00) 18.5 5.28 (15:50) 2.22 (18:40) 0 0 0 0 0
07-10-2019 29.8 (19:00) 9.9 (00:00) 19.8 3.33 (16:20) 1.67 (21:40) 0 0 0 0 0
06-10-2019 26.7 (17:50) 10.4 (00:00) 18.6 4.17 (17:20) 1.67 (17:30) 0 0 0 0 0
05-10-2019 24.8 (17:30) 11.9 (03:10) 18.3 4.44 (16:20) 2.22 (17:30) 0 0 0 0 0
04-10-2019 23.6 (18:30) 14.9 (00:00) 19.3 3.89 (18:20) 2.22 (18:20) 1.4 0.4 1 0 0
03-10-2019 23 (16:10) 8.2 (00:00) 15.6 3.89 (21:00) 1.94 (21:00) 0.8 0 0 0 0.8
02-10-2019 23 (18:10) 12 (00:00) 17.5 4.17 (18:00) 1.67 (15:40) 0 0 0 0 0
01-10-2019 25.4 (15:50) 14.6 (00:00) 20 7.78 (15:40) 3.61 (15:40) 2.6 0 2.6 0 0
30-09-2019 28.5 (17:50) 18.3 (00:00) 23.4 7.78 (18:40) 3.33 (18:20) 0.2 0.2 0 0 0
29-09-2019 23.8 (17:30) 9.2 (00:00) 16.5 7.78 (17:40) 3.89 (17:20) 0 0 0 0 0
28-09-2019 27 (18:40) 10.1 (00:00) 18.6 3.89 (13:20) 1.94 (19:50) 0 0 0 0 0
27-09-2019 24.3 (18:40) 10.8 (00:00) 17.5 6.11 (18:00) 3.06 (17:10) 0 0 0 0 0
26-09-2019 26.3 (17:10) 12.4 (00:00) 19.3 5.56 (16:50) 2.78 (17:40) 0 0 0 0 0
25-09-2019 21.6 (16:30) 13.6 (00:00) 17.6 4.17 (13:40) 2.22 (13:40) 0.2 0.2 0 0 0
24-09-2019 24.6 (16:00) 15.3 (00:00) 20 8.89 (16:10) 4.17 (16:20) 2.2 0.4 1.8 0 0
23-09-2019 24.4 (15:40) 11.8 (00:00) 18.1 7.78 (15:30) 3.61 (14:30) 0 0 0 0 0
22-09-2019 24.2 (17:10) 12.8 (00:00) 18.5 9.72 (17:40) 4.17 (16:40) 0 0 0 0 0
21-09-2019 21.5 (17:10) 14.1 (00:00) 17.8 9.17 (17:40) 4.17 (17:30) 3.6 0 0.4 0.6 2.6
20-09-2019 28.1 (17:00) 15 (00:00) 21.6 6.11 (17:20) 3.33 (19:00) 0 0 0 0 0
19-09-2019 32 (16:20) 14.2 (00:00) 23.1 6.67 (16:50) 3.33 (16:50) 1.6 0 0 1.6 0
18-09-2019 31.2 (18:20) 15.5 (00:00) 23.4 3.89 (16:00) 1.94 (16:00) 0 0 0 0 0
17-09-2019 29.2 (14:40) 16.3 (00:00) 22.8 8.33 (18:40) 3.06 (18:50) 17.6 0 0 0 17.6
16-09-2019 29.9 (16:30) 15.3 (00:00) 22.6 7.5 (14:30) 3.33 (13:50) 2.4 0 0.2 0 2.2

Gráficas

Temp. máximas Temp. mínimas Temp. medias Precipitaciones Rachas de viento máximas Velocidades máximas media en intervalos de 10 minutos

Datos horarios

Fecha y hora oficial Temperatura (ºC) Velocidad del viento (km/h) Dirección del viento Racha (km/h) Dirección de racha Precipitación (mm) Presión (hPa) Tendencia (hPa) Humedad (%)
2019-10-15 23:00:00 15.1 5 Sudeste 12 Sudeste 0 999.8 0.1 74
2019-10-15 22:00:00 15 0 Calma 12 Sudoeste 0 999.9 0.1 74
2019-10-15 21:00:00 15.4 4 Sudeste 10 Sudeste 0 999.9 0.2 70
2019-10-15 20:00:00 15.7 5 Sur 9 Sudeste 0 999.7 -0.8 69
2019-10-15 19:00:00 16 0 Calma 9 Este 0 999.8 -0.6 71
2019-10-15 18:00:00 15.9 7 Sudeste 23 Sudoeste 0 999.7 -1.2 68
2019-10-15 17:00:00 16.2 14 Sudoeste 27 Oeste 0 1000.5 -1 64
2019-10-15 16:00:00 16.2 4 Sur 25 Oeste 0.2 1000.4 -1.3 69
2019-10-15 15:00:00 16.3 6 Sur 20 Sudeste 0 1000.9 -1.1 73
2019-10-15 14:00:00 14.2 8 Sur 21 Sudoeste 0 1001.5 -1.1 82
2019-10-15 13:00:00 12.5 4 Oeste 12 Oeste 0 1001.7 -0.6 87
2019-10-15 12:00:00 10.7 4 Oeste 7 Oeste 0 1002 0.2 95
2019-10-15 11:00:00 8.9 2 Oeste 5 Este 0 1002.6 0.9 97
2019-10-15 10:00:00 8.2 2 Sudoeste 5 Sudoeste 0 1002.3 0.6 98
2019-10-15 09:00:00 7.7 3 Oeste 5 Oeste 0 1001.8 0.3 98
2019-10-15 08:00:00 7.8 2 Sur 5 Sudoeste 0 1001.7 0.5 97
2019-10-15 07:00:00 7.5 0 Calma 5 Nordeste 0 1001.7 0.4 96
2019-10-15 06:00:00 8.1 0 Calma 4 Sudoeste 0 1001.5 0.1 96
2019-10-15 05:00:00 8.3 2 Sudoeste 4 Sudoeste 0 1001.2 -0.1 96
2019-10-15 04:00:00 8.1 3 Oeste 4 Sudoeste 0 1001.3 0.4 95
2019-10-15 03:00:00 8.7 0 Calma 4 Oeste 0 1001.4 0.9 95
2019-10-15 02:00:00 9.2 2 Sudoeste 5 Sudoeste 0 1001.3 1.1 94
2019-10-15 01:00:00 9.6 0 Calma 5 Oeste 0.2 1000.9 1.5 94
2019-10-15 00:00:00 9.7 3 Sur 6 Oeste 0.2 1000.5 1.4 92
2019-10-14 23:00:00 10.1 2 Noroeste 4 Oeste 0 1000.2 2.2 89
2019-10-14 22:00:00 11 2 Este 7 Sudeste 0 999.4 2.3 84
2019-10-14 21:00:00 11.8 4 Sudoeste 17 Sudoeste 0 999.1 3.3 80
2019-10-14 20:00:00 12.6 11 Sur 21 Sudoeste 0 998 3.1 74
2019-10-14 19:00:00 14.2 5 Sudoeste 37 Sudoeste 0 997.1 3.1 66
2019-10-14 18:00:00 14.8 6 Noroeste 23 Noroeste 0 995.8 1.6 68
2019-10-14 17:00:00 14.7 9 Oeste 30 Noroeste 0.2 994.9 1.3 69
2019-10-14 16:00:00 14.9 8 Sudoeste 19 Oeste 0 994 2.2 79
2019-10-14 15:00:00 12.2 5 Sudeste 14 Sudeste 0.6 994.2 2.3 88
2019-10-14 14:00:00 12.8 5 Sudoeste 48 Oeste 2.8 993.6 2.5 85
2019-10-14 13:00:00 16 9 Sur 22 Sur 0 991.8 1 73
2019-10-14 12:00:00 13.2 4 Sudeste 13 Sudeste 0 991.9 2.6 90
2019-10-14 11:00:00 12.2 4 Este 10 Sudeste 3.2 991.1 2.2 93
2019-10-14 10:00:00 11.9 2 Oeste 6 Oeste 1.4 990.8 1.7 96
2019-10-14 09:00:00 11.6 0 Calma 4 Sur 0 989.3 -0.1 95
2019-10-14 08:00:00 12 2 Sur 5 Sudoeste 0 988.9 -1.2 94
2019-10-14 07:00:00 12.4 2 Nordeste 8 Oeste 0 989.1 -1.9 93
2019-10-14 06:00:00 12.5 5 Oeste 8 Oeste 0.2 989.4 -2.2 93
2019-10-14 05:00:00 12.5 3 Oeste 7 Sur 1.6 990.1 -1.8 94
2019-10-14 04:00:00 12.6 3 Sudoeste 8 Sudeste 2.2 991 -0.4 95
2019-10-14 03:00:00 12.7 3 Sudeste 7 Sudeste 2.2 991.6 -0.4 95
2019-10-14 02:00:00 12.9 3 Sudoeste 10 Noroeste 3 991.9 -0.2 93
2019-10-14 01:00:00 13.4 3 Norte 8 Nordeste 6 991.4 -0.3 93
2019-10-14 00:00:00 14 2 Sur 9 Sudoeste 0.8 992 0.5 90
2019-10-13 23:00:00 14.9 3 Sur 14 Sudoeste 2.4 992.1 0.4 89
2019-10-13 22:00:00 16 3 Oeste 6 Oeste 2.8 991.7 -0.2 94
2019-10-13 21:00:00 16.1 2 Oeste 5 Nordeste 2.2 991.5 -0.4 93
2019-10-13 20:00:00 16.4 0 Calma 5 Nordeste 2.6 991.7 -0.7 92
2019-10-13 19:00:00 16.9 2 Sudeste 6 Sudeste 2.4 991.9 -0.5 91
2019-10-13 18:00:00 17.5 2 Este 7 Nordeste 2 991.9 -0.8 91
2019-10-13 17:00:00 18.1 0 Calma 6 Nordeste 1 992.4 -0.9 89
2019-10-13 16:00:00 18.2 3 Noroeste 8 Noroeste 0.2 992.4 -1.2 89
2019-10-13 15:00:00 18 0 Calma 5 Sudeste 0 992.7 -0.6 89
2019-10-13 14:00:00 17.7 4 Este 8 Nordeste 1.2 993.3 0.2 91
2019-10-13 13:00:00 17.6 4 Oeste 9 Sudeste 1 993.6 1.2 91
2019-10-13 12:00:00 17 3 Este 8 Sur 0.6 993.3 1.6 93
2019-10-13 11:00:00 16.1 4 Sur 9 Sur 3 993.1 2.3 92
2019-10-13 10:00:00 15.9 2 Sudeste 16 Sudeste 2 992.4 2.1 90
2019-10-13 09:00:00 16.1 5 Este 11 Nordeste 6.6 991.7 1.5 91
2019-10-13 08:00:00 16.5 4 Oeste 17 Sudeste 3.6 990.8 0.4 86
2019-10-13 07:00:00 18.7 7 Sur 24 Sudeste 0 990.3 -1.1 67
2019-10-13 06:00:00 18.9 12 Sudeste 26 Sudeste 0 990.2 -1.6 62
2019-10-13 05:00:00 18.9 3 Nordeste 17 Este 0 990.4 -1.7 63
2019-10-13 04:00:00 19 8 Sudeste 23 Nordeste 0 991.4 -1 61
2019-10-13 03:00:00 18.9 9 Sudeste 22 Sudeste 0 991.8 -0.8 59
2019-10-13 02:00:00 18.6 7 Sudeste 15 Sudeste 0 992.1 -0.4 61
2019-10-13 01:00:00 18.6 7 Este 16 Sudeste 0 992.4 -0.1 62
2019-10-13 00:00:00 18.4 4 Sudeste 27 Sudeste 0 992.6 -0.1 61
2019-10-12 23:00:00 18.6 12 Sudeste 24 Sur 0 992.5 -0.1 60
2019-10-12 22:00:00 18.3 8 Sudeste 14 Este 0 992.5 0.6 63
2019-10-12 21:00:00 19.6 5 Sudeste 24 Sudoeste 0 992.7 1.3 60
2019-10-12 20:00:00 21 6 Sudoeste 22 Sur 0 992.6 1.1 61
2019-10-12 19:00:00 22.7 11 Sudoeste 29 Oeste 0 991.9 0.1 55
2019-10-12 18:00:00 24.6 12 Sudoeste 35 Sur 0 991.4 -0.9 49
2019-10-12 17:00:00 26.7 14 Sudoeste 40 Sudoeste 0 991.5 -1.5 42
2019-10-12 16:00:00 27.1 17 Sudoeste 39 Sudoeste 0 991.8 -2 41
2019-10-12 15:00:00 27 18 Sudoeste 38 Sudoeste 0 992.3 -2.4 40
2019-10-12 14:00:00 25.9 13 Sur 30 Sudoeste 0 993 -2.2 45
2019-10-12 13:00:00 19.8 2 Nordeste 8 Este 0 993.8 -1.2 66
2019-10-12 12:00:00 16.8 2 Nordeste 8 Oeste 0 994.7 0.2 74
2019-10-12 11:00:00 13.8 0 Calma 5 Este 0 995.2 1 85
2019-10-12 10:00:00 11.9 3 Nordeste 6 Oeste 0 995 0.3 90
2019-10-12 09:00:00 11.5 0 Calma 5 Oeste 0 994.5 -0.3 89
2019-10-12 08:00:00 12.5 3 Nordeste 6 Oeste 0 994.2 -1 87
2019-10-12 07:00:00 12.5 2 Sudoeste 6 Sudeste 0 994.7 -0.9 86
2019-10-12 06:00:00 12.2 0 Calma 6 Oeste 0 994.8 -1.1 86
2019-10-12 05:00:00 12.3 2 Nordeste 5 Oeste 0 995.2 -0.9 86
2019-10-12 04:00:00 12.7 2 Sur 6 Oeste 0 995.6 -0.8 83
2019-10-12 03:00:00 13 0 Calma 6 Sudoeste 0 995.9 -0.7 82
2019-10-12 02:00:00 13.8 3 Este 5 Este 0 996.1 -0.5 80
2019-10-12 01:00:00 15 3 Sudeste 5 Este 0 996.4 0.3 75
2019-10-12 00:00:00 15.9 3 Oeste 6 Sudoeste 0 996.6 0.9 72
2019-10-11 23:00:00 17.7 3 Sudoeste 6 Oeste 0 996.6 1.1 65
2019-10-11 22:00:00 20.1 0 Calma 9 Sudoeste 0 996.1 0.5 56
2019-10-11 21:00:00 22.4 2 Este 12 Sudoeste 0 995.7 0 48
2019-10-11 20:00:00 24.5 6 Oeste 18 Oeste 0 995.5 -0.1 42
2019-10-11 19:00:00 27.2 6 Oeste 20 Oeste 0 995.6 -0.6 37
2019-10-11 18:00:00 28.9 9 Oeste 22 Oeste 0 995.7 -1.4 34
2019-10-11 17:00:00 29.6 8 Oeste 22 Oeste 0 995.6 -2.7 33
2019-10-11 16:00:00 28.1 4 Noroeste 11 Noroeste 0 996.2 -3.2 35
2019-10-11 15:00:00 25.6 3 Noroeste 9 Oeste 0 997.1 -3.1 40
2019-10-11 14:00:00 22.2 4 Sudoeste 10 Oeste 0 998.3 -2.6 49
2019-10-11 13:00:00 18.5 3 Sur 9 Oeste 0 999.4 -1.6 60
2019-10-11 12:00:00 15 4 Sudoeste 9 Sudoeste 0 1000.2 -0.3 71
2019-10-11 11:00:00 11 2 Sudeste 5 Sur 0 1000.9 0.6 87
2019-10-11 10:00:00 8 3 Oeste 4 Sudeste 0 1001 0.8 93
2019-10-11 09:00:00 7.1 0 Calma 5 Oeste 0 1000.5 0.4 91
2019-10-11 08:00:00 7.5 0 Calma 4 Sudeste 0 1000.3 0.1 91
2019-10-11 07:00:00 7.5 0 Calma 4 Oeste 0 1000.2 -0.1 90
2019-10-11 06:00:00 8.1 0 Calma 4 Oeste 0 1000.1 -0.5 90
2019-10-11 05:00:00 8.6 0 Calma 4 Oeste 0 1000.2 -0.3 89
2019-10-11 04:00:00 9.2 2 Sudoeste 4 Oeste 0 1000.3 -0.5 87
2019-10-11 03:00:00 9.7 2 Sudoeste 5 Oeste 0 1000.6 -0.3 86
2019-10-11 02:00:00 10.6 0 Calma 3 Sudeste 0 1000.5 -0.2 84
2019-10-11 01:00:00 11.6 2 Sudoeste 6 Sudoeste 0 1000.8 0.3 80
2019-10-11 00:00:00 12.9 0 Calma 4 Sudoeste 0 1000.9 1 75
2019-10-10 23:00:00 14.4 0 Calma 7 Sur 0 1000.7 1.4 70
2019-10-10 22:00:00 16.4 0 Calma 4 Oeste 0 1000.5 1.2 62
2019-10-10 21:00:00 18.8 0 Calma 6 Oeste 0 999.9 0.3 55
2019-10-10 20:00:00 23.4 0 Calma 5 Oeste 0 999.3 -0.8 42
2019-10-10 19:00:00 26.4 3 Oeste 9 Oeste 0 999.3 -1.7 30
2019-10-10 18:00:00 25.9 7 Noroeste 13 Noroeste 0 999.6 -2.5 30
2019-10-10 17:00:00 25.2 4 Norte 12 Noroeste 0 1000.1 -3.4 35
2019-10-10 16:00:00 23.5 5 Noroeste 13 Sudoeste 0 1001 -3.4 42
2019-10-10 15:00:00 21.9 6 Sudoeste 12 Sudoeste 0 1002.1 -3.1 44
2019-10-10 14:00:00 18.6 4 Sur 12 Sur 0 1003.5 -2 57
2019-10-10 13:00:00 15.5 4 Sudoeste 14 Sur 0 1004.4 -1 67
2019-10-10 12:00:00 12.9 6 Sudeste 12 Sudoeste 0 1005.2 0.3 77
2019-10-10 11:00:00 10.9 3 Sur 6 Sur 0 1005.5 0.7 85
2019-10-10 10:00:00 9.2 0 Calma 4 Sur 0 1005.4 0.8 88
2019-10-10 09:00:00 8.1 3 Sudeste 5 Oeste 0 1004.9 0.4 90
2019-10-10 08:00:00 7.5 3 Oeste 6 Sur 0 1004.8 0.2 90
2019-10-10 07:00:00 7.2 2 Oeste 6 Sudeste 0 1004.6 0 90
2019-10-10 06:00:00 7.4 2 Sur 6 Oeste 0 1004.5 -0.5 90
2019-10-10 05:00:00 8.1 0 Calma 4 Sudoeste 0 1004.6 -0.5 88
2019-10-10 04:00:00 8.8 3 Sudoeste 5 Oeste 0 1004.6 -0.8 86
2019-10-10 03:00:00 9.7 2 Oeste 5 Oeste 0 1005 -0.3 84
2019-10-10 02:00:00 10.1 3 Noroeste 7 Oeste 0 1005.1 0.1 84
2019-10-10 01:00:00 10.7 0 Calma 6 Sudoeste 0 1005.4 0.6 80
2019-10-10 00:00:00 12.1 2 Sudoeste 5 Oeste 0 1005.3 1 76
2019-10-09 23:00:00 14 0 Calma 5 Sudoeste 0 1005 1.2 68
2019-10-09 22:00:00 15.5 0 Calma 6 Oeste 0 1004.8 1.4 63
2019-10-09 21:00:00 17.4 3 Nordeste 8 Nordeste 0 1004.3 0.9 55
2019-10-09 20:00:00 19.4 3 Este 12 Nordeste 0 1003.8 0.2 49
2019-10-09 19:00:00 21 5 Nordeste 21 Noroeste 0 1003.4 -0.6 44
2019-10-09 18:00:00 21.5 4 Nordeste 17 Este 0 1003.4 -0.9 43
2019-10-09 17:00:00 22.6 5 Norte 16 Nordeste 0 1003.6 -1.3 39
2019-10-09 16:00:00 22.1 5 Nordeste 17 Nordeste 0 1004 -1.6 40
2019-10-09 15:00:00 20.6 4 Norte 16 Noroeste 0 1004.3 -2.1 44
2019-10-09 14:00:00 19.5 5 Norte 20 Nordeste 0 1004.9 -1.5 49
2019-10-09 13:00:00 18.4 4 Sudeste 11 Este 0 1005.6 -0.7 58
2019-10-09 12:00:00 15 5 Sur 9 Sur 0 1006.4 0.8 70
2019-10-09 11:00:00 11.5 3 Sur 5 Sur 0 1006.4 1.1 86
2019-10-09 10:00:00 8.1 0 Calma 4 Oeste 0 1006.3 1.3 93
2019-10-09 09:00:00 7.8 2 Sudeste 4 Sur 0 1005.6 0.8 92
2019-10-09 08:00:00 8.4 3 Oeste 5 Oeste 0 1005.3 0.8 91
2019-10-09 07:00:00 8.9 3 Sudeste 4 Sur 0 1005 0.1 91
2019-10-09 06:00:00 9.6 0 Calma 6 Oeste 0 1004.8 0.1 89
2019-10-09 05:00:00 10.7 2 Oeste 6 Oeste 0 1004.5 0.7 86
2019-10-09 04:00:00 12.2 0 Calma 5 Norte 0 1004.9 1.2 82
2019-10-09 03:00:00 13.9 3 Norte 9 Oeste 0 1004.7 0.7 77
2019-10-09 02:00:00 14.9 4 Sudoeste 9 Oeste 0 1003.8 0.1 79
2019-10-09 01:00:00 15.4 3 Sudoeste 11 Oeste 0 1003.7 0.6 85
2019-10-09 00:00:00 15.8 6 Sur 10 Sur 0 1004 1.5 84
2019-10-08 23:00:00 16.3 2 Nordeste 10 Oeste 0 1003.7 2 79
2019-10-08 22:00:00 16.7 4 Oeste 9 Oeste 0 1003.1 2 79
2019-10-08 21:00:00 17.8 4 Noroeste 9 Norte 0 1002.5 1.8 78
2019-10-08 20:00:00 19.5 3 Norte 13 Noroeste 0 1001.7 1.1 74
2019-10-08 19:00:00 20.5 4 Norte 17 Noroeste 0 1001.1 0.2 75
2019-10-08 18:00:00 21.2 5 Oeste 10 Oeste 0 1000.7 0.2 74
2019-10-08 17:00:00 21.6 4 Oeste 15 Noroeste 0 1000.6 -0.5 74
2019-10-08 16:00:00 22 5 Oeste 19 Noroeste 0 1000.9 -0.8 76
2019-10-08 15:00:00 24.2 3 Noroeste 11 Oeste 0 1000.5 -1.7 62
2019-10-08 14:00:00 22.6 4 Norte 9 Nordeste 0 1001.1 -1.1 69
2019-10-08 13:00:00 20.5 5 Noroeste 9 Noroeste 0 1001.7 -0.5 70
2019-10-08 12:00:00 18.7 3 Oeste 8 Oeste 0 1002.2 0 74
2019-10-08 11:00:00 17 3 Sur 6 Oeste 0 1002.2 0 81
2019-10-08 10:00:00 15 4 Oeste 7 Oeste 0 1002.2 0.2 85
2019-10-08 09:00:00 13.9 2 Sudeste 6 Sudoeste 0 1002.2 0.4 88
2019-10-08 08:00:00 13.4 2 Sudoeste 5 Oeste 0 1002.2 0.4 88
2019-10-08 07:00:00 12.7 0 Calma 5 Sudoeste 0 1002 -0.4 90
2019-10-08 06:00:00 12.9 2 Sur 5 Oeste 0 1001.8 -0.8 88
2019-10-08 05:00:00 13.5 0 Calma 3 Sudoeste 0 1001.8 -0.6 85
2019-10-08 04:00:00 14.2 0 Calma 5 Sudoeste 0 1002.4 -0.1 84
2019-10-08 03:00:00 14.8 2 Oeste 4 Sudeste 0 1002.6 0.1 82
2019-10-08 02:00:00 15.6 3 Sudeste 5 Oeste 0 1002.4 -0.1 79
2019-10-08 01:00:00 16.6 0 Calma 6 Este 0 1002.5 0.7 75
2019-10-08 00:00:00 17.6 4 Oeste 5 Oeste 0 1002.5 1.1 72
2019-10-07 23:00:00 19.1 3 Oeste 6 Este 0 1002.5 1.4 68
2019-10-07 22:00:00 21 2 Este 9 Este 0 1001.8 1.2 63
2019-10-07 21:00:00 23.6 3 Este 12 Oeste 0 1001.4 0.7 55
2019-10-07 20:00:00 26.6 5 Oeste 12 Noroeste 0 1001.1 0 39
2019-10-07 19:00:00 29.7 4 Oeste 11 Oeste 0 1000.6 -1.1 28
2019-10-07 18:00:00 29.6 4 Noroeste 10 Noroeste 0 1000.7 -1.7 26
2019-10-07 17:00:00 29.2 3 Nordeste 12 Noroeste 0 1001.1 -2.3 22
2019-10-07 16:00:00 27.3 4 Norte 9 Este 0 1001.7 -2.4 22
2019-10-07 15:00:00 24.8 4 Noroeste 11 Sudoeste 0 1002.4 -2.4 44
2019-10-07 14:00:00 21.7 3 Noroeste 10 Noroeste 0 1003.4 -1.6 56
2019-10-07 13:00:00 18.9 4 Sudoeste 9 Sudoeste 0 1004.1 -0.9 68
2019-10-07 12:00:00 14.3 5 Sur 9 Sudoeste 0 1004.8 0.3 85
2019-10-07 11:00:00 12.5 3 Sudoeste 7 Oeste 0 1005 1 91
2019-10-07 10:00:00 11.6 3 Sudoeste 8 Oeste 0 1005 1.2 94
2019-10-07 09:00:00 10.6 3 Oeste 5 Oeste 0 1004.5 1.2 92
2019-10-07 08:00:00 10 3 Oeste 4 Noroeste 0 1004 0.5 92
2019-10-07 07:00:00 10.3 0 Calma 5 Sudeste 0 1003.8 0.1 92
2019-10-07 06:00:00 10.8 3 Oeste 5 Oeste 0 1003.3 -0.7 90
2019-10-07 05:00:00 11.4 3 Oeste 4 Oeste 0 1003.5 -0.5 89
2019-10-07 04:00:00 12.3 2 Sudeste 5 Sudeste 0 1003.7 -0.6 88
2019-10-07 03:00:00 13.1 2 Oeste 5 Sudeste 0 1004 -0.3 85
2019-10-07 02:00:00 14.1 2 Sur 5 Sur 0 1004 0 84
2019-10-07 01:00:00 15.2 0 Calma 4 Sudoeste 0 1004.3 0.5 81
2019-10-07 00:00:00 16.3 2 Oeste 4 Oeste 0 1004.3 1.1 78
2019-10-06 23:00:00 17.9 2 Este 4 Este 0 1004 1.5 72
2019-10-06 22:00:00 19.2 0 Calma 6 Sudoeste 0 1003.8 1.5 68
2019-10-06 21:00:00 21.5 3 Nordeste 6 Este 0 1003.2 1 59
2019-10-06 20:00:00 25.2 0 Calma 5 Oeste 0 1002.5 0.2 48
2019-10-06 19:00:00 26.5 3 Norte 10 Noroeste 0 1002.3 -0.7 41
2019-10-06 18:00:00 26.7 3 Nordeste 15 Noroeste 0 1002.2 -1.3 37
2019-10-06 17:00:00 26.2 4 Nordeste 13 Noroeste 0 1002.3 -2 38
2019-10-06 16:00:00 25 4 Norte 12 Norte 0 1003 -1.7 47
2019-10-06 15:00:00 23.6 4 Nordeste 10 Nordeste 0 1003.5 -2 52
2019-10-06 14:00:00 22.1 4 Oeste 10 Sudoeste 0 1004.3 -1.2 60
2019-10-06 13:00:00 19.5 4 Sudeste 7 Nordeste 0 1004.7 -0.4 66
2019-10-06 12:00:00 16.7 2 Sur 8 Sur 0 1005.5 0.9 73
2019-10-06 11:00:00 13.8 2 Sudeste 5 Sudeste 0 1005.5 1.6 84
2019-10-06 10:00:00 12.1 2 Sudeste 5 Sudeste 0 1005.1 1.4 88
2019-10-06 09:00:00 10.9 0 Calma 5 Sudoeste 0 1004.6 0.9 90
2019-10-06 08:00:00 10.5 3 Sur 4 Sur 0 1003.9 0.5 91
2019-10-06 07:00:00 10.7 2 Sur 4 Sudeste 0 1003.7 0.1 89
2019-10-06 06:00:00 11 3 Sudeste 5 Sudeste 0 1003.7 -0.4 89
2019-10-06 05:00:00 11.6 2 Sudeste 5 Sudoeste 0 1003.4 -0.7 87
2019-10-06 04:00:00 11.8 0 Calma 6 Sudeste 0 1003.6 -0.6 89
2019-10-06 03:00:00 11.9 2 Oeste 5 Oeste 0 1004.1 0.5 87
2019-10-06 02:00:00 12.4 3 Oeste 5 Oeste 0 1004.1 0.9 86
2019-10-06 01:00:00 13.3 0 Calma 5 Oeste 0 1004.2 1.5 83
2019-10-06 00:00:00 14.6 2 Oeste 5 Oeste 0 1003.6 1.7 78
2019-10-05 23:00:00 16.2 3 Este 6 Este 0 1003.2 2.4 72
2019-10-05 22:00:00 17.7 2 Sur 12 Oeste 0 1002.7 2.5 66
2019-10-05 21:00:00 19.1 3 Sudoeste 14 Oeste 0 1001.9 2 61
2019-10-05 20:00:00 20.7 4 Sudoeste 12 Oeste 0 1000.8 0.9 59
2019-10-05 19:00:00 22.9 5 Oeste 14 Oeste 0 1000.2 0.1 53
2019-10-05 18:00:00 24.2 4 Sudoeste 14 Oeste 0 999.9 -0.8 47
2019-10-05 17:00:00 24 6 Oeste 16 Noroeste 0 999.9 -1.6 46
2019-10-05 16:00:00 22.8 5 Sudeste 15 Sudoeste 0 1000.1 -1.6 51
2019-10-05 15:00:00 21.2 4 Sur 12 Oeste 0 1000.7 -1.3 55
2019-10-05 14:00:00 19.9 6 Norte 11 Noroeste 0 1001.5 -0.5 62
2019-10-05 13:00:00 17.3 4 Sudoeste 7 Oeste 0 1001.7 0.2 77
2019-10-05 12:00:00 15.5 2 Norte 4 Noroeste 0 1002 1.3 85
2019-10-05 11:00:00 14.1 2 Noroeste 5 Oeste 0 1002 2.1 89
2019-10-05 10:00:00 13.1 2 Sudoeste 5 Oeste 0 1001.5 1.6 93
2019-10-05 09:00:00 12.2 2 Sudoeste 5 Oeste 0 1000.7 0.9 94
2019-10-05 08:00:00 12.2 0 Calma 3 Este 0 999.9 -0.3 92
2019-10-05 07:00:00 12.8 0 Calma 3 Oeste 0 999.9 -0.7 91
2019-10-05 06:00:00 12.8 0 Calma 3 Oeste 0 999.8 -1 92
2019-10-05 05:00:00 12.5 2 Oeste 4 Sudoeste 0 1000.2 -0.4 92
2019-10-05 04:00:00 12 0 Calma 5 Oeste 0 1000.6 0 92
2019-10-05 03:00:00 12 2 Oeste 3 Oeste 0 1000.8 0.4 90
2019-10-05 02:00:00 12.8 0 Calma 4 Sudoeste 0 1000.6 0.4 90
2019-10-05 01:00:00 13.7 2 Oeste 3 Oeste 0 1000.6 0.6 88
2019-10-05 00:00:00 14.9 0 Calma 6 Este 0 1000.4 0.5 86
2019-10-04 23:00:00 16 2 Este 4 Este 0 1000.2 0.8 83
2019-10-04 22:00:00 17.5 2 Este 8 Este 0 1000 1 77
2019-10-04 21:00:00 19.7 3 Oeste 8 Oeste 0 999.9 0.9 69
2019-10-04 20:00:00 21.4 3 Oeste 10 Oeste 0 999.4 0 59
2019-10-04 19:00:00 22.7 6 Sudoeste 14 Oeste 0 999 -0.8 57
2019-10-04 18:00:00 23.2 6 Oeste 13 Oeste 0 999 -1.4 56
2019-10-04 17:00:00 22.6 2 Este 8 Norte 0 999.4 -1.5 56
2019-10-04 16:00:00 22.8 5 Sudoeste 12 Oeste 0 999.8 -1.8 57
2019-10-04 15:00:00 22.8 6 Oeste 13 Oeste 0 1000.4 -1.7 58
2019-10-04 14:00:00 20.8 3 Sudoeste 12 Nordeste 0 1000.9 -0.9 68
2019-10-04 13:00:00 20.3 5 Nordeste 10 Este 0 1001.6 0.2 73
2019-10-04 12:00:00 19 2 Nordeste 9 Oeste 0 1002.1 1 82
2019-10-04 11:00:00 17.9 3 Oeste 9 Oeste 0 1001.8 1.1 84
2019-10-04 10:00:00 17.5 3 Sudoeste 6 Oeste 0.2 1001.4 0.6 93
2019-10-04 09:00:00 17.6 4 Oeste 9 Oeste 0.6 1001.1 0.3 93
2019-10-04 08:00:00 18 0 Calma 4 Sudoeste 0 1000.7 0 94
2019-10-04 07:00:00 17.8 0 Calma 3 Oeste 0.2 1000.8 -0.1 95
2019-10-04 06:00:00 17.9 0 Calma 4 Oeste 0.2 1000.8 -0.5 94
2019-10-04 05:00:00 17.9 0 Calma 3 Sudoeste 0.2 1000.7 -1.1 94
2019-10-04 04:00:00 18 0 Calma 5 Oeste 0 1000.9 -1.2 93
2019-10-04 03:00:00 18.1 0 Calma 2 Sudoeste 0 1001.3 -1.1 92
2019-10-04 02:00:00 18.2 0 Calma 3 Sudeste 0 1001.8 -0.6 92
2019-10-04 01:00:00 18.3 0 Calma 3 Sudoeste 0 1002.1 -0.2 92
2019-10-04 00:00:00 18.4 0 Calma 3 Sudoeste 0.4 1002.4 0.4 91
2019-10-03 23:00:00 18.5 3 Sudeste 5 Este 0.4 1002.4 0.8 90
2019-10-03 22:00:00 19.3 4 Nordeste 10 Sudoeste 0 1002.3 0.9 84
2019-10-03 21:00:00 20.8 7 Sudoeste 14 Sudoeste 0 1002 0.5 71
2019-10-03 20:00:00 21.6 2 Nordeste 12 Oeste 0 1001.6 -0.3 67
2019-10-03 19:00:00 22.5 3 Sudoeste 8 Nordeste 0 1001.4 -0.5 63
2019-10-03 18:00:00 22.5 2 Norte 8 Nordeste 0 1001.5 -0.9 62
2019-10-03 17:00:00 22.7 2 Nordeste 12 Norte 0 1001.9 -1.6 57
2019-10-03 16:00:00 22.7 3 Noroeste 10 Norte 0 1001.9 -2.2 56
2019-10-03 15:00:00 21.1 4 Oeste 10 Noroeste 0 1002.4 -2 57
2019-10-03 14:00:00 18.6 5 Sudoeste 11 Oeste 0 1003.5 -1.3 63
2019-10-03 13:00:00 15.6 3 Norte 9 Oeste 0 1004.1 -0.1 72
2019-10-03 12:00:00 12.3 5 Oeste 9 Noroeste 0 1004.4 0.7 82
2019-10-03 11:00:00 10.2 4 Sudoeste 8 Sudoeste 0 1004.8 1.5 92
2019-10-03 10:00:00 9.7 6 Sur 10 Sur 0 1004.2 0.7 94
2019-10-03 09:00:00 9.1 4 Sur 8 Sudoeste 0 1003.7 0.6 92
2019-10-03 08:00:00 8.7 3 Sudeste 6 Oeste 0 1003.3 0.2 91
2019-10-03 07:00:00 8.2 2 Oeste 5 Oeste 0 1003.5 0.6 91
2019-10-03 06:00:00 8.5 0 Calma 4 Sudeste 0 1003.1 0.3 90
2019-10-03 05:00:00 9 0 Calma 8 Oeste 0 1003.1 0.3 89
2019-10-03 04:00:00 9.6 0 Calma 5 Sudoeste 0 1002.9 0 88
2019-10-03 03:00:00 10.4 2 Sudeste 6 Nordeste 0 1002.8 0 87
2019-10-03 02:00:00 11.1 4 Oeste 6 Oeste 0 1002.8 -0.3 85
2019-10-03 01:00:00 11.9 3 Oeste 5 Oeste 0 1002.9 -0.2 83
2019-10-03 00:00:00 12.8 2 Sudeste 6 Oeste 0 1002.8 -0.1 80
2019-10-02 23:00:00 14.4 0 Calma 5 Oeste 0 1003.1 0.6 74
2019-10-02 22:00:00 16 0 Calma 5 Oeste 0 1003.1 0.6 67
2019-10-02 21:00:00 18.4 3 Sudoeste 7 Noroeste 0 1002.9 0.7 60
2019-10-02 20:00:00 20.8 2 Nordeste 10 Este 0 1002.5 -0.2 50
2019-10-02 19:00:00 22.2 3 Norte 15 Noroeste 0 1002.5 -0.4 45
2019-10-02 18:00:00 22.8 5 Noroeste 15 Noroeste 0 1002.2 -1.1 45
2019-10-02 17:00:00 21.5 3 Norte 14 Noroeste 0 1002.7 -1 48
2019-10-02 16:00:00 21.3 5 Nordeste 14 Nordeste 0 1002.9 -1.1 50
2019-10-02 15:00:00 20.5 5 Oeste 12 Noroeste 0 1003.3 -0.8 52
2019-10-02 14:00:00 19.2 4 Oeste 10 Oeste 0 1003.7 -0.4 58
2019-10-02 13:00:00 18.8 2 Oeste 10 Norte 0 1004 0.2 61
2019-10-02 12:00:00 18 3 Nordeste 12 Nordeste 0 1004.1 1.1 70
2019-10-02 11:00:00 16.6 3 Nordeste 6 Este 0 1004.1 1.4 74
2019-10-02 10:00:00 13.5 2 Oeste 4 Sudoeste 0 1003.8 1.6 89
2019-10-02 09:00:00 12.7 0 Calma 5 Sudeste 0 1003 0.7 90
2019-10-02 08:00:00 12.4 3 Sudeste 5 Oeste 0 1002.7 0.1 91
2019-10-02 07:00:00 12 2 Sudoeste 5 Sudeste 0 1002.2 -0.8 90
2019-10-02 06:00:00 12.8 3 Sudeste 5 Sudoeste 0 1002.3 -0.4 88
2019-10-02 05:00:00 13.2 0 Calma 7 Sudeste 0 1002.6 -0.2 87
2019-10-02 04:00:00 12.8 3 Sudoeste 5 Sur 0 1003 0.1 89
2019-10-02 03:00:00 13 3 Sudoeste 6 Oeste 0 1002.7 0.1 85
2019-10-02 02:00:00 13.2 0 Calma 4 Oeste 0 1002.8 0.3 84
2019-10-02 01:00:00 13.8 2 Sudoeste 6 Oeste 0 1002.9 1.4 81
2019-10-02 00:00:00 14.6 2 Oeste 6 Oeste 0 1002.6 1.8 77
2019-10-01 23:00:00 16 3 Sudeste 7 Oeste 0 1002.5 2.3 72
2019-10-01 22:00:00 17.3 3 Sudoeste 15 Noroeste 0 1001.5 2.3 67
2019-10-01 21:00:00 18.6 8 Oeste 22 Oeste 0 1000.8 1.9 60
2019-10-01 20:00:00 20.6 9 Oeste 22 Noroeste 0 1000.2 1.6 54
2019-10-01 19:00:00 22.1 9 Oeste 24 Noroeste 0 999.2 0.5 48
2019-10-01 18:00:00 22.5 10 Oeste 24 Oeste 0 998.9 0.2 48
2019-10-01 17:00:00 23.9 8 Oeste 27 Oeste 0 998.6 -0.5 46
2019-10-01 16:00:00 24.6 8 Oeste 28 Noroeste 0 998.7 -0.8 46
2019-10-01 15:00:00 24 9 Sudoeste 19 Sudoeste 0 998.7 -0.7 47
2019-10-01 14:00:00 22.1 7 Oeste 17 Oeste 0 999.1 -0.3 60
2019-10-01 13:00:00 21.8 4 Nordeste 9 Oeste 0 999.5 0.7 65
2019-10-01 12:00:00 20.3 3 Sur 6 Oeste 0 999.4 1.2 74
2019-10-01 11:00:00 18.5 3 Sur 8 Oeste 0 999.4 1.8 86
2019-10-01 10:00:00 16.7 2 Sudoeste 5 Sur 0.2 998.8 1.3 93
2019-10-01 09:00:00 16.4 2 Sudoeste 5 Sur 0.2 998.2 1.5 92
2019-10-01 08:00:00 16.6 3 Sudeste 5 Sudeste 1.4 997.6 0.5 91
2019-10-01 07:00:00 17.1 3 Norte 10 Norte 0.8 997.5 -0.1 85
2019-10-01 06:00:00 16.9 3 Este 9 Este 0 996.7 -1.5 82
2019-10-01 05:00:00 17 4 Sudeste 8 Sudeste 0 997.1 -1.3 82
2019-10-01 04:00:00 17.4 3 Sudoeste 10 Sur 0 997.6 -0.5 80
2019-10-01 03:00:00 18.1 5 Sudeste 11 Sudeste 0 998.2 0.2 78
2019-10-01 02:00:00 18.5 5 Sur 9 Sur 0 998.4 0.4 77
2019-10-01 01:00:00 18.8 4 Sur 11 Sur 0 998.1 0.3 80
2019-10-01 00:00:00 19.3 6 Sur 14 Sur 0 998 0.8 78
2019-09-30 23:00:00 19.4 5 Sudoeste 10 Sudeste 0 998 0.8 79
2019-09-30 22:00:00 20.2 4 Sudoeste 9 Oeste 0 997.8 1 74
2019-09-30 21:00:00 21.7 3 Sudeste 13 Oeste 0 997.2 0.7 68
2019-09-30 20:00:00 23.8 5 Norte 20 Oeste 0 997.2 0.5 60
2019-09-30 19:00:00 26.6 8 Oeste 28 Oeste 0 996.8 -0.3 51
2019-09-30 18:00:00 28.1 11 Oeste 26 Oeste 0 996.5 -1.3 48
2019-09-30 17:00:00 28.3 8 Oeste 22 Oeste 0 996.7 -1.7 48
2019-09-30 16:00:00 27.2 9 Oeste 19 Oeste 0 997.1 -1.9 53
2019-09-30 15:00:00 26 4 Noroeste 18 Oeste 0 997.8 -1.8 58
2019-09-30 14:00:00 26.2 4 Sur 17 Sudeste 0 998.4 -1.5 56
2019-09-30 13:00:00 25.8 8 Sudeste 21 Sur 0 999 -0.8 58
2019-09-30 12:00:00 23.8 6 Sudeste 12 Sur 0 999.6 -0.1 66
2019-09-30 11:00:00 20.8 2 Sur 6 Sur 0 999.9 0.2 82
2019-09-30 10:00:00 19.1 0 Calma 5 Sudeste 0 999.8 0.3 91
2019-09-30 09:00:00 18.5 4 Sur 7 Sudeste 0 999.7 0.2 93
2019-09-30 08:00:00 18.6 2 Oeste 4 Sudeste 0 999.7 0 94
2019-09-30 07:00:00 18.4 2 Oeste 3 Oeste 0 999.5 -0.9 94
2019-09-30 06:00:00 18.4 0 Calma 3 Oeste 0 999.5 -1.3 93
2019-09-30 05:00:00 18.5 2 Oeste 6 Oeste 0.2 999.7 -1.3 94
2019-09-30 04:00:00 18.7 2 Sudeste 4 Oeste 0 1000.4 -0.9 93
2019-09-30 03:00:00 18.8 2 Oeste 4 Nordeste 0 1000.8 -0.8 92
2019-09-30 02:00:00 18.8 0 Calma 4 Oeste 0 1001 -0.7 92
2019-09-30 01:00:00 19.1 2 Este 5 Oeste 0 1001.3 -0.2 91
2019-09-30 00:00:00 19.2 2 Sur 3 Oeste 0 1001.6 0.7 90
2019-09-29 23:00:00 19.5 0 Calma 5 Sudeste 0 1001.7 1.3 88
2019-09-29 22:00:00 19.8 0 Calma 8 Este 0 1001.5 1 87
2019-09-29 21:00:00 20.6 0 Calma 9 Oeste 0 1000.9 0.3 81
2019-09-29 20:00:00 22 4 Noroeste 15 Noroeste 0 1000.4 0 71
2019-09-29 19:00:00 22.8 8 Oeste 17 Oeste 0 1000.5 0.4 68
2019-09-29 18:00:00 23.8 7 Sudoeste 28 Sudoeste 0 1000.6 0.2 65
2019-09-29 17:00:00 23 9 Sudoeste 26 Oeste 0 1000.4 -0.7 67
2019-09-29 16:00:00 23.1 6 Oeste 17 Oeste 0 1000.1 -1.3 66
2019-09-29 15:00:00 22.9 2 Norte 9 Norte 0 1000.4 -1.5 61
2019-09-29 14:00:00 21.1 3 Noroeste 9 Norte 0 1001.1 -1 59
2019-09-29 13:00:00 18.5 6 Noroeste 13 Oeste 0 1001.4 -0.7 63
2019-09-29 12:00:00 16.3 4 Oeste 8 Oeste 0 1001.9 0 69
2019-09-29 11:00:00 12.8 0 Calma 10 Oeste 0 1002.1 1.1 79
2019-09-29 10:00:00 10.6 3 Oeste 7 Oeste 0 1002.1 0.9 92
2019-09-29 09:00:00 9.2 2 Sur 4 Sur 0 1001.9 1 92
2019-09-29 08:00:00 9.3 2 Este 5 Oeste 0 1001 0 92
2019-09-29 07:00:00 9.5 3 Sudeste 6 Oeste 0 1001.2 -0.5 92
2019-09-29 06:00:00 9.8 0 Calma 5 Noroeste 0 1000.9 -0.8 91
2019-09-29 05:00:00 10.3 0 Calma 5 Oeste 0 1001 -0.5 90
2019-09-29 04:00:00 11 0 Calma 4 Oeste 0 1001.7 0.1 89
2019-09-29 03:00:00 11.7 2 Sudoeste 5 Sudeste 0 1001.7 0.4 88
2019-09-29 02:00:00 12.6 0 Calma 8 Oeste 0 1001.5 0.3 86
2019-09-29 01:00:00 13.6 2 Oeste 5 Sur 0 1001.6 0.9 83
2019-09-29 00:00:00 14.7 4 Oeste 8 Oeste 0 1001.3 1.2 79
2019-09-28 23:00:00 16.3 3 Oeste 8 Oeste 0 1001.2 1.5 74
2019-09-28 22:00:00 18.1 4 Este 8 Oeste 0 1000.7 0.8 67
2019-09-28 21:00:00 20.9 2 Sur 8 Sudoeste 0 1000.1 0.1 57
2019-09-28 20:00:00 24.3 6 Sudoeste 13 Sudoeste 0 999.7 -0.6 44
2019-09-28 19:00:00 26.3 5 Norte 12 Norte 0 999.9 -1 36
2019-09-28 18:00:00 26.4 6 Norte 13 Oeste 0 1000 -1.8 23
2019-09-28 17:00:00 26.1 4 Norte 13 Norte 0 1000.3 -2.8 28
2019-09-28 16:00:00 24.1 4 Nordeste 12 Este 0 1000.9 -3.2 40
2019-09-28 15:00:00 21.4 5 Nordeste 12 Este 0 1001.8 -3.1 56
2019-09-28 14:00:00 19.3 5 Nordeste 14 Noroeste 0 1003.1 -1.9 62
2019-09-28 13:00:00 17.4 3 Noroeste 10 Norte 0 1004.1 -0.4 66
2019-09-28 12:00:00 14.8 5 Oeste 10 Oeste 0 1004.9 0.8 77
2019-09-28 11:00:00 12.9 5 Sur 8 Sudoeste 0 1005 1.2 89
2019-09-28 10:00:00 11.7 3 Sudoeste 5 Sur 0 1004.5 0.5 95
2019-09-28 09:00:00 11.3 2 Sudoeste 5 Sudoeste 0 1004.1 0 93
2019-09-28 08:00:00 11 3 Sudoeste 8 Oeste 0 1003.8 -0.4 93
2019-09-28 07:00:00 10.6 3 Oeste 3 Oeste 0 1004 -0.3 93
2019-09-28 06:00:00 10.1 0 Calma 4 Sudoeste 0 1004.1 -0.4 90
2019-09-28 05:00:00 11 0 Calma 3 Sudoeste 0 1004.2 -0.4 90
2019-09-28 04:00:00 11.6 2 Sudoeste 4 Oeste 0 1004.3 -0.2 89
2019-09-28 03:00:00 11.9 0 Calma 5 Sudoeste 0 1004.5 0.1 88
2019-09-28 02:00:00 12.6 3 Oeste 4 Oeste 0 1004.6 0.4 87
2019-09-28 01:00:00 13.4 0 Calma 6 Oeste 0 1004.5 0.6 84
2019-09-28 00:00:00 14.5 0 Calma 5 Oeste 0 1004.4 1.1 81
2019-09-27 23:00:00 15.5 4 Oeste 8 Oeste 0 1004.2 1.2 77
2019-09-27 22:00:00 17.3 4 Este 8 Noroeste 0 1003.9 1.4 70
2019-09-27 21:00:00 19.1 3 Sur 12 Oeste 0 1003.3 0.7 64
2019-09-27 20:00:00 21 5 Oeste 18 Oeste 0 1003 0.2 57
2019-09-27 19:00:00 23.6 9 Oeste 22 Oeste 0 1002.5 -0.5 49
2019-09-27 18:00:00 24 9 Oeste 22 Oeste 0 1002.6 -0.7 51
2019-09-27 17:00:00 22 11 Oeste 19 Oeste 0 1002.8 -1.3 61
2019-09-27 16:00:00 21.4 5 Oeste 10 Oeste 0 1003 -1.1 67
2019-09-27 15:00:00 21.2 4 Norte 12 Sur 0 1003.3 -0.6 67
2019-09-27 14:00:00 18.1 2 Nordeste 6 Sudoeste 0 1004.1 0.2 79
2019-09-27 13:00:00 16.5 3 Sur 7 Sudoeste 0 1004.1 0.4 80
2019-09-27 12:00:00 15.6 3 Oeste 6 Oeste 0 1003.9 0.7 78
2019-09-27 11:00:00 14.1 3 Sudeste 9 Oeste 0 1003.9 1.1 85
2019-09-27 10:00:00 12.8 3 Sudeste 5 Sudoeste 0 1003.7 0.7 87
2019-09-27 09:00:00 12.1 3 Sudoeste 6 Sudoeste 0 1003.2 0 89
2019-09-27 08:00:00 11.8 0 Calma 8 Oeste 0 1002.8 -0.7 88
2019-09-27 07:00:00 11.3 3 Sudeste 8 Oeste 0 1003 -0.8 90
2019-09-27 06:00:00 10.8 3 Sur 6 Oeste 0 1003.2 -0.7 90
2019-09-27 05:00:00 10.9 2 Sudeste 7 Oeste 0 1003.5 -0.8 90
2019-09-27 04:00:00 11.3 3 Oeste 8 Oeste 0 1003.8 -0.7 88
2019-09-27 03:00:00 11.9 3 Oeste 5 Oeste 0 1003.9 -0.3 87
2019-09-27 02:00:00 12.7 3 Sur 5 Oeste 0 1004.3 0.3 85
2019-09-27 01:00:00 13.8 3 Sudoeste 4 Sudoeste 0 1004.5 0.8 82
2019-09-27 00:00:00 15.1 0 Calma 5 Oeste 0 1004.2 1.7 77
2019-09-26 23:00:00 17.1 0 Calma 13 Oeste 0 1004 2.2 69
2019-09-26 22:00:00 18.1 4 Este 16 Oeste 0 1003.7 2.3 65
2019-09-26 21:00:00 19.5 4 Sudoeste 12 Sudoeste 0 1002.5 1.3 62
2019-09-26 20:00:00 22.9 6 Sudoeste 17 Sudoeste 0 1001.8 0.4 52
2019-09-26 19:00:00 24.9 9 Sudoeste 18 Oeste 0 1001.4 -0.3 45
2019-09-26 18:00:00 26 9 Sudoeste 19 Sudoeste 0 1001.2 -0.7 42
2019-09-26 17:00:00 26 10 Sudoeste 20 Oeste 0 1001.4 -1.1 44
2019-09-26 16:00:00 25.2 9 Oeste 19 Sudoeste 0 1001.7 -1.6 44
2019-09-26 15:00:00 24.2 7 Sur 15 Sudoeste 0 1001.9 -1.6 47
2019-09-26 14:00:00 22.3 3 Norte 12 Nordeste 0 1002.5 -0.6 51
2019-09-26 13:00:00 21.6 4 Norte 11 Noroeste 0 1003.3 0.4 53
2019-09-26 12:00:00 20.4 4 Sudeste 8 Oeste 0 1003.5 0.8 58
2019-09-26 11:00:00 16.4 2 Sudoeste 5 Sur 0 1003.1 0.6 76
2019-09-26 10:00:00 14.1 2 Sur 4 Sur 0 1002.9 0.5 85
2019-09-26 09:00:00 13.1 0 Calma 4 Sur 0 1002.7 0.2 89
2019-09-26 08:00:00 12.8 0 Calma 3 Sur 0 1002.5 0 89
2019-09-26 07:00:00 12.5 0 Calma 6 Oeste 0 1002.4 -0.2 90
2019-09-26 06:00:00 12.5 3 Oeste 6 Oeste 0 1002.5 -0.2 90
2019-09-26 05:00:00 12.7 3 Oeste 4 Oeste 0 1002.5 -0.6 88
2019-09-26 04:00:00 13.8 0 Calma 4 Sudoeste 0 1002.6 -0.7 86
2019-09-26 03:00:00 14.6 3 Sudoeste 4 Oeste 0 1002.7 -0.4 83
2019-09-26 02:00:00 15.1 2 Sudoeste 4 Oeste 0 1003.1 0.2 82
2019-09-26 01:00:00 15.3 0 Calma 5 Oeste 0 1003.3 0.9 80
2019-09-26 00:00:00 15.4 0 Calma 6 Sudeste 0 1003.1 1.2 78
2019-09-25 23:00:00 15.9 3 Este 6 Este 0 1002.9 1.5 75
2019-09-25 22:00:00 17.3 0 Calma 12 Oeste 0 1002.4 0.8 70
2019-09-25 21:00:00 18.9 3 Oeste 8 Oeste 0 1001.9 0.4 62
2019-09-25 20:00:00 20.8 4 Oeste 12 Oeste 0 1001.4 -0.5 56
2019-09-25 19:00:00 21 4 Oeste 12 Oeste 0 1001.6 -0.6 57
2019-09-25 18:00:00 21.5 3 Oeste 12 Oeste 0 1001.5 -1.2 54
2019-09-25 17:00:00 21.6 5 Sudoeste 11 Sur 0 1001.9 -1.1 54
2019-09-25 16:00:00 21.1 4 Sur 13 Oeste 0 1002.2 -1.3 55
2019-09-25 15:00:00 20.9 5 Sudoeste 15 Sur 0 1002.7 -1.1 56
2019-09-25 14:00:00 20.9 5 Noroeste 15 Oeste 0 1003 -0.7 54
2019-09-25 13:00:00 19.8 5 Sur 9 Sur 0 1003.5 0.4 63
2019-09-25 12:00:00 18.1 3 Sudeste 6 Sur 0 1003.8 0.9 76
2019-09-25 11:00:00 15.5 2 Sudoeste 5 Sudoeste 0 1003.7 1.1 88
2019-09-25 10:00:00 14.6 2 Sudoeste 4 Sudeste 0 1003.1 0.6 92
2019-09-25 09:00:00 13.9 2 Sudeste 4 Oeste 0 1002.9 0.3 93
2019-09-25 08:00:00 13.9 2 Oeste 8 Oeste 0 1002.6 0.1 93
2019-09-25 07:00:00 13.9 0 Calma 4 Oeste 0 1002.5 -0.2 92
2019-09-25 06:00:00 14 0 Calma 4 Sudeste 0.2 1002.6 -0.3 91
2019-09-25 05:00:00 13.9 4 Oeste 5 Oeste 0 1002.5 0 87
2019-09-25 04:00:00 13.7 3 Oeste 5 Oeste 0 1002.7 -0.3 88
2019-09-25 03:00:00 13.8 2 Sudoeste 7 Oeste 0 1002.9 0 84
2019-09-25 02:00:00 14.5 2 Sur 5 Oeste 0 1002.5 -0.2 81
2019-09-25 01:00:00 15 3 Oeste 7 Sudeste 0 1003 0.5 79
2019-09-25 00:00:00 15.3 3 Este 6 Sudoeste 0 1002.9 1 76
2019-09-24 23:00:00 16.5 0 Calma 9 Oeste 0 1002.7 1.5 69
2019-09-24 22:00:00 17.3 5 Sudoeste 15 Oeste 0 1002.5 1.7 64
2019-09-24 21:00:00 18.3 7 Oeste 14 Oeste 0 1001.9 1.6 62
2019-09-24 20:00:00 19.7 8 Sudoeste 23 Oeste 0 1001.2 0.8 57
2019-09-24 19:00:00 21.6 9 Oeste 26 Oeste 0 1000.8 0.7 51
2019-09-24 18:00:00 22.3 12 Sudoeste 30 Noroeste 0 1000.3 0.1 52
2019-09-24 17:00:00 23.6 10 Sudoeste 32 Sur 0 1000.4 -0.2 51
2019-09-24 16:00:00 24.5 10 Sudoeste 24 Sur 0 1000.1 -0.4 53
2019-09-24 15:00:00 23.4 14 Sudoeste 28 Sur 0 1000.2 0 57
2019-09-24 14:00:00 23.3 10 Sudoeste 19 Oeste 0 1000.6 1 57
2019-09-24 13:00:00 20.6 10 Sudoeste 19 Oeste 0 1000.5 1.7 74
2019-09-24 12:00:00 19.7 8 Sudoeste 18 Sudoeste 0 1000.2 1.6 79
2019-09-24 11:00:00 19.6 4 Sur 10 Sudoeste 0 999.6 1.3 90
2019-09-24 10:00:00 18.3 5 Sudeste 13 Sudeste 0.2 998.8 0.6 92
2019-09-24 09:00:00 17.5 4 Sudeste 9 Sudeste 0.6 998.6 0.5 94
2019-09-24 08:00:00 17.2 3 Sudoeste 5 Sur 0.2 998.3 0.1 92
2019-09-24 07:00:00 17.4 3 Este 13 Este 0.8 998.2 0.2 90
2019-09-24 06:00:00 17.9 3 Sur 9 Sudeste 0.2 998.1 -0.9 83
2019-09-24 05:00:00 19.1 4 Sur 15 Sudeste 0.2 998.2 -1.5 77
2019-09-24 04:00:00 19.4 7 Sur 21 Sudeste 0 998 -1.5 65
2019-09-24 03:00:00 19.5 12 Sur 30 Sudeste 0 999 -1.1 65
2019-09-24 02:00:00 19.6 12 Sur 30 Sur 0 999.7 -0.6 63
2019-09-24 01:00:00 19.9 12 Sur 27 Sudoeste 0 999.5 -0.7 62
2019-09-24 00:00:00 20 9 Sur 25 Sudeste 0 1000.1 0.1 61
2019-09-23 23:00:00 20 11 Sudeste 21 Sudeste 0 1000.3 0.3 62
2019-09-23 22:00:00 20.3 6 Sudeste 14 Sudeste 0 1000.2 0.2 60
2019-09-23 21:00:00 20.9 7 Sudeste 16 Sudeste 0 1000 -0.3 57
2019-09-23 20:00:00 21.6 3 Sudoeste 6 Sur 0 1000 -0.5 59
2019-09-23 19:00:00 21.8 4 Oeste 11 Sudoeste 0 1000 -0.3 57
2019-09-23 18:00:00 22.1 5 Oeste 14 Oeste 0 1000.3 -0.4 56
2019-09-23 17:00:00 22.5 7 Oeste 18 Sur 0 1000.5 -0.9 54
2019-09-23 16:00:00 23.6 9 Sur 28 Sudoeste 0 1000.3 -1.3 48
2019-09-23 15:00:00 22.8 10 Sur 26 Sur 0 1000.7 -1.2 49
2019-09-23 14:00:00 21.1 12 Sur 24 Sur 0 1001.4 -0.6 53
2019-09-23 13:00:00 20.7 11 Sur 21 Sudoeste 0 1001.6 -0.3 55
2019-09-23 12:00:00 18.5 5 Noroeste 9 Noroeste 0 1001.9 0.2 66
2019-09-23 11:00:00 16.1 4 Noroeste 9 Noroeste 0 1002 0.8 75
2019-09-23 10:00:00 14.2 3 Oeste 5 Noroeste 0 1001.9 0.9 84
2019-09-23 09:00:00 13 0 Calma 8 Sudeste 0 1001.7 0.5 85
2019-09-23 08:00:00 12.7 3 Oeste 4 Sur 0 1001.2 0.1 86
2019-09-23 07:00:00 12.3 3 Sudeste 5 Sudeste 0 1001 -0.4 87
2019-09-23 06:00:00 11.9 3 Sudoeste 7 Sudeste 0 1001.2 0.1 87
2019-09-23 05:00:00 11.9 3 Sudeste 4 Sudeste 0 1001.1 0 88
2019-09-23 04:00:00 12.2 3 Este 5 Oeste 0 1001.4 0.3 87
2019-09-23 03:00:00 12.9 0 Calma 8 Sudoeste 0 1001.1 0.4 84
2019-09-23 02:00:00 13.2 3 Oeste 7 Sudoeste 0 1001.1 0.5 82
2019-09-23 01:00:00 13.9 0 Calma 5 Sur 0 1001.1 1 80
2019-09-23 00:00:00 14.7 3 Sur 8 Sur 0 1000.7 1.4 79
2019-09-22 23:00:00 16.1 3 Sur 17 Sudeste 0 1000.6 1.7 72
2019-09-22 22:00:00 16.7 7 Sudeste 12 Sudeste 0 1000.1 1.7 68
2019-09-22 21:00:00 18.2 4 Sudeste 10 Oeste 0 999.3 1.6 62
2019-09-22 20:00:00 20.1 7 Sudoeste 17 Sudoeste 0 998.9 1.6 52
2019-09-22 19:00:00 22 10 Sudoeste 27 Oeste 0 998.4 1.1 51
2019-09-22 18:00:00 23.1 11 Oeste 35 Oeste 0 997.7 0.1 47
2019-09-22 17:00:00 24.1 13 Sur 30 Sudoeste 0 997.3 -0.1 46
2019-09-22 16:00:00 23.2 13 Oeste 30 Oeste 0 997.3 0 47
2019-09-22 15:00:00 21.3 8 Oeste 25 Oeste 0 997.6 0.2 55
2019-09-22 14:00:00 21.5 8 Sudoeste 24 Oeste 0 997.4 0.4 52
2019-09-22 13:00:00 20.8 10 Oeste 21 Sudoeste 0 997.3 0.9 55
2019-09-22 12:00:00 19.8 9 Sur 20 Sur 0 997.4 1.8 61
2019-09-22 11:00:00 17.8 8 Sur 20 Sur 0 997 1.6 64
2019-09-22 10:00:00 14 4 Sur 10 Sur 0 996.4 1.9 83
2019-09-22 09:00:00 12.9 5 Sur 11 Sudeste 0 995.6 1.6 83
2019-09-22 08:00:00 13.9 4 Sur 12 Sudeste 0 995.4 1.8 81
2019-09-22 07:00:00 14.8 5 Sur 21 Sur 0 994.5 1.5 80
2019-09-22 06:00:00 15.4 9 Sur 26 Sudeste 0 994 1.4 78
2019-09-22 05:00:00 15.6 8 Sudeste 15 Sudeste 0 993.6 1.2 81
2019-09-22 04:00:00 14.9 6 Sur 10 Sur 0 993 1 88
2019-09-22 03:00:00 14.5 5 Sudeste 10 Sur 0 992.6 0.4 87
2019-09-22 02:00:00 14.3 6 Sur 14 Sur 0 992.4 0.7 85
2019-09-22 01:00:00 14.2 4 Sur 9 Sur 0 992 0.7 87
2019-09-22 00:00:00 14.4 4 Este 9 Oeste 0 992.2 1.3 86
2019-09-21 23:00:00 14.2 3 Sur 8 Sur 0 991.7 1.5 86
2019-09-21 22:00:00 15.4 5 Sur 14 Sudeste 0 991.3 2.6 86
2019-09-21 21:00:00 16.3 6 Sudeste 13 Sudeste 0 990.9 3.4 83
2019-09-21 20:00:00 17 9 Sudoeste 22 Sur 0.4 990.2 2.9 81
2019-09-21 19:00:00 18.8 8 Sudoeste 21 Oeste 2.2 988.7 0.7 86
2019-09-21 18:00:00 20.8 13 Sudoeste 33 Sudoeste 0.2 987.5 -1 75
2019-09-21 17:00:00 21.3 12 Sur 24 Sur 0 987.3 -1.4 69
2019-09-21 16:00:00 20.2 4 Norte 15 Noroeste 0 988 -1.5 84
2019-09-21 15:00:00 20.9 4 Sur 21 Sur 0 988.5 -1 79
2019-09-21 14:00:00 20.5 6 Sudeste 18 Este 0.2 988.7 -1.3 79
2019-09-21 13:00:00 20.2 4 Sudeste 17 Sudeste 0.2 989.5 -0.1 83
2019-09-21 12:00:00 19.3 5 Sudeste 17 Sur 0.4 989.5 0.2 81
2019-09-21 11:00:00 19.2 8 Sur 19 Sudoeste 0 990 0.5 79
2019-09-21 10:00:00 19.2 5 Sudeste 19 Sudeste 0 989.6 0.1 76
2019-09-21 09:00:00 19 8 Sudeste 20 Sudeste 0 989.3 -0.7 75
2019-09-21 08:00:00 19.3 8 Sur 23 Sudeste 0 989.5 -1.2 72
2019-09-21 07:00:00 18.2 6 Sudeste 19 Sudeste 0 989.5 -2 76
2019-09-21 06:00:00 17.2 2 Sur 8 Oeste 0 990 -2.3 82
2019-09-21 05:00:00 17.2 2 Sudeste 7 Este 0 990.7 -1.8 83
2019-09-21 04:00:00 16.7 0 Calma 8 Oeste 0 991.5 -1 82
2019-09-21 03:00:00 16.2 2 Sudoeste 6 Oeste 0 992.3 -0.8 86
2019-09-21 02:00:00 16.1 4 Oeste 8 Oeste 0 992.5 -0.4 85
2019-09-21 01:00:00 17 4 Oeste 8 Oeste 0 992.5 -0.5 83
2019-09-21 00:00:00 17.8 3 Sudeste 6 Sudeste 0 993.1 0.3 80
2019-09-20 23:00:00 18.9 2 Sudeste 5 Sudoeste 0 992.9 0.1 75
2019-09-20 22:00:00 20.4 0 Calma 8 Oeste 0 993 0.7 70
2019-09-20 21:00:00 22.1 4 Oeste 13 Oeste 0 992.8 1 60
2019-09-20 20:00:00 23.6 4 Noroeste 20 Sudoeste 0 992.8 0.9 55
2019-09-20 19:00:00 25.1 12 Oeste 22 Noroeste 0 992.3 -0.6 53
2019-09-20 18:00:00 27 10 Oeste 22 Oeste 0 991.8 -1.6 48
2019-09-20 17:00:00 28.1 6 Oeste 14 Oeste 0 991.9 -2.2 50
2019-09-20 16:00:00 26 5 Sudoeste 14 Sudoeste 0 992.9 -1.8 55
2019-09-20 15:00:00 24.8 5 Norte 14 Norte 0 993.4 -1.9 60
2019-09-20 14:00:00 22.9 5 Norte 12 Noroeste 0 994.1 -1.5 66
2019-09-20 13:00:00 20.6 5 Nordeste 12 Nordeste 0 994.7 -0.9 76
2019-09-20 12:00:00 18 4 Oeste 9 Oeste 0 995.3 0 84
2019-09-20 11:00:00 17 3 Sudoeste 5 Sur 0 995.6 0.2 91
2019-09-20 10:00:00 16 2 Sur 6 Sur 0 995.6 0.2 93
2019-09-20 09:00:00 15.8 3 Sudoeste 5 Sudoeste 0 995.3 -0.1 93
2019-09-20 08:00:00 15.5 2 Sudoeste 4 Sudeste 0 995.4 -0.2 93
2019-09-20 07:00:00 15 3 Oeste 6 Oeste 0 995.4 -0.7 93
2019-09-20 06:00:00 15.2 2 Sudeste 4 Sudoeste 0 995.4 -1.1 92
2019-09-20 05:00:00 15.7 0 Calma 4 Sur 0 995.6 -0.9 91
2019-09-20 04:00:00 16.3 2 Sur 4 Oeste 0 996.1 -0.7 91
2019-09-20 03:00:00 16.9 2 Sudoeste 5 Sudoeste 0 996.5 -0.5 90
2019-09-20 02:00:00 17.5 4 Oeste 5 Oeste 0 996.5 -0.3 89
2019-09-20 01:00:00 18.3 2 Sudeste 4 Sur 0 996.8 0.3 88
2019-09-20 00:00:00 19.1 0 Calma 5 Oeste 0 997 0.9 87
2019-09-19 23:00:00 20.1 2 Sudoeste 4 Oeste 0 996.8 1.1 85
2019-09-19 22:00:00 21.6 0 Calma 8 Sudeste 0 996.5 0.7 80
2019-09-19 21:00:00 23.3 2 Este 6 Nordeste 0 996.1 0.3 77
2019-09-19 20:00:00 24.6 3 Sudeste 10 Sur 0 995.7 0.1 69
2019-09-19 19:00:00 23.3 4 Sudoeste 11 Sur 0 995.8 -0.1 80
2019-09-19 18:00:00 23.5 6 Sur 14 Nordeste 1.2 995.8 -0.7 69
2019-09-19 17:00:00 27.6 8 Este 24 Nordeste 0.4 995.6 -2 50
2019-09-19 16:00:00 31.7 5 Norte 12 Noroeste 0 995.9 -2.7 35
2019-09-19 15:00:00 30 7 Oeste 13 Oeste 0 996.5 -2.7 41
2019-09-19 14:00:00 27.8 6 Oeste 14 Noroeste 0 997.6 -2.1 47
2019-09-19 13:00:00 24.7 5 Sur 9 Sur 0 998.6 -1.1 60
2019-09-19 12:00:00 20.9 4 Sur 9 Sur 0 999.2 -0.2 75
2019-09-19 11:00:00 17.4 3 Sudoeste 6 Sudoeste 0 999.7 0.6 88
2019-09-19 10:00:00 15.5 2 Sur 3 Sur 0 999.7 0.6 91
2019-09-19 09:00:00 14.3 2 Oeste 4 Sur 0 999.4 0.3 91
2019-09-19 08:00:00 14.3 2 Sur 5 Sudoeste 0 999.1 0 90
2019-09-19 07:00:00 14.6 0 Calma 5 Sur 0 999.1 -0.2 91
2019-09-19 06:00:00 15 3 Sudeste 5 Sur 0 999.1 -0.3 90
2019-09-19 05:00:00 15.5 2 Sudoeste 5 Sur 0 999.1 -0.1 89
2019-09-19 04:00:00 16.2 2 Sudoeste 7 Sudeste 0 999.3 0.3 87
2019-09-19 03:00:00 16.9 4 Sudeste 7 Sudeste 0 999.4 0.4 86
2019-09-19 02:00:00 17.7 3 Sudeste 5 Sudeste 0 999.2 0.6 83
2019-09-19 01:00:00 18.2 2 Oeste 5 Oeste 0 999 0.8 82
2019-09-19 00:00:00 19.2 0 Calma 5 Nordeste 0 999 1.7 78
2019-09-18 23:00:00 20.6 4 Oeste 7 Este 0 998.6 1.9 72
2019-09-18 22:00:00 22.5 2 Sudoeste 6 Oeste 0 998.2 1.6 64
2019-09-18 21:00:00 26.2 4 Oeste 8 Oeste 0 997.3 0.6 52
2019-09-18 20:00:00 29.3 3 Norte 8 Norte 0 996.7 -0.3 38
2019-09-18 19:00:00 30.9 5 Sudoeste 10 Sudoeste 0 996.6 -0.8 34
2019-09-18 18:00:00 30.9 4 Oeste 14 Sudoeste 0 996.7 -1.5 34
2019-09-18 17:00:00 29.9 3 Noroeste 12 Noroeste 0 997 -1.7 32
2019-09-18 16:00:00 29.2 7 Oeste 14 Oeste 0 997.4 -1.9 35
2019-09-18 15:00:00 27.5 4 Oeste 10 Oeste 0 998.2 -1.5 50
2019-09-18 14:00:00 24.7 5 Oeste 12 Oeste 0 998.7 -1.1 57
2019-09-18 13:00:00 21.9 3 Sur 9 Oeste 0 999.3 -0.2 67
2019-09-18 12:00:00 18.7 4 Este 11 Sudoeste 0 999.7 0.5 82
2019-09-18 11:00:00 16.3 3 Sudeste 6 Sudeste 0 999.8 1.1 90
2019-09-18 10:00:00 15.9 4 Sudoeste 9 Oeste 0 999.5 1.2 92
2019-09-18 09:00:00 15.6 3 Sudoeste 6 Este 0 999.2 1.1 94
2019-09-18 08:00:00 15.6 2 Sudoeste 6 Sur 0 998.7 0.6 93
2019-09-18 07:00:00 15.7 4 Sudeste 6 Sudeste 0 998.3 0.2 94
2019-09-18 06:00:00 15.8 4 Sudeste 8 Sudeste 0 998.1 -0.5 94
2019-09-18 05:00:00 15.9 2 Sudeste 5 Sudoeste 0 998.1 -0.4 95
2019-09-18 04:00:00 16.2 2 Este 5 Sudoeste 0 998.1 0 94
2019-09-18 03:00:00 16.7 3 Este 6 Este 0 998.6 0.3 93
2019-09-18 02:00:00 16.8 3 Este 9 Sudoeste 0 998.5 0.1 92
2019-09-18 01:00:00 17.3 2 Nordeste 10 Sudoeste 0 998.1 -1.3 90
2019-09-18 00:00:00 17.5 4 Norte 11 Nordeste 0.4 998.3 -0.8 91
2019-09-17 23:00:00 18 3 Oeste 13 Sudoeste 1.4 998.4 -0.5 88
2019-09-17 22:00:00 18.2 4 Norte 19 Nordeste 1.8 999.4 2.2 87
2019-09-17 21:00:00 18.6 5 Sudeste 20 Sudeste 13.2 999.1 3 88